Погода Берберана 2 недели

Северо-Западная область, Сомали

05 - 18 марта
  • 05марта
    Сегодня
    +26°
    +33°
    Небольшая облачность
    ВремяПогодаТемператураВлажностьДавлениеВетер, м/сВероятность осадков
    00:00Небольшая облачность+28°C80 %757 мм2.0 м/с1 %
    03:00Практически безоблачно+27°C85 %756 мм1.0 м/с1 %
    06:00Облачно с прояснениями+27°C85 %758 мм1.3 м/с2 %
    09:00Практически безоблачно+30°C76 %759 мм0.9 м/с1 %
    12:00Практически безоблачно+32°C72 %757 мм5.7 м/с1 %
    15:00Небольшая облачность+32°C72 %756 мм7.4 м/с2 %
    18:00Практически безоблачно+30°C79 %756 мм5.9 м/с2 %
    21:00Ясно и безоблачно+29°C78 %758 мм3.7 м/с1 %
  • 06марта
    Среда
    +26°
    +33°
    Ясно и безоблачно
    ВремяПогодаТемператураВлажностьДавлениеВетер, м/сВероятность осадков
    00:00Ясно и безоблачно+28°C82 %758 мм2.4 м/с1 %
    03:00Ясно и безоблачно+27°C85 %756 мм1.5 м/с1 %
    06:00Ясно и безоблачно+26°C88 %758 мм1.4 м/с1 %
    09:00Ясно и безоблачно+30°C73 %759 мм2.1 м/с1 %
    12:00Ясно и безоблачно+32°C70 %757 мм4.9 м/с1 %
    15:00Ясно и безоблачно+32°C73 %755 мм7.5 м/с2 %
    18:00Ясно и безоблачно+31°C75 %755 мм6.9 м/с1 %
    21:00Ясно и безоблачно+30°C76 %757 мм4.1 м/с1 %
  • 07марта
    Четверг
    +27°
    +33°
    Ясно и безоблачно
    ВремяПогодаТемператураВлажностьДавлениеВетер, м/сВероятность осадков
    00:00Ясно и безоблачно+28°C83 %757 мм1.4 м/с1 %
    03:00Небольшая облачность+27°C88 %756 мм2.0 м/с1 %
    06:00Ясно и безоблачно+27°C92 %757 мм2.9 м/с5 %
    09:00Практически безоблачно+29°C78 %759 мм2.1 м/с6 %
    12:00Ясно и безоблачно+32°C73 %757 мм4.5 м/с1 %
    15:00Ясно и безоблачно+32°C71 %755 мм6.7 м/с1 %
    18:00Ясно и безоблачно+31°C77 %755 мм5.3 м/с1 %
    21:00Ясно и безоблачно+30°C84 %758 мм2.5 м/с1 %
  • 08марта
    Пятница
    +27°
    +33°
    Ясно и безоблачно
    ВремяПогодаТемператураВлажностьДавлениеВетер, м/сВероятность осадков
    00:00Практически безоблачно+28°C88 %757 мм0.6 м/с1 %
    03:00Практически безоблачно+28°C90 %756 мм3.2 м/с14 %
    06:00Практически безоблачно+27°C91 %757 мм0.9 м/с33 %
    09:00Практически безоблачно+29°C78 %759 мм1.1 м/с30 %
    12:00Ясно и безоблачно+32°C72 %757 мм4.9 м/с2 %
    15:00Ясно и безоблачно+31°C74 %755 мм5.7 м/с2 %
    18:00Ясно и безоблачно+30°C77 %756 мм5.3 м/с1 %
    21:00Практически безоблачно+29°C81 %758 мм2.1 м/с1 %
  • 09марта
    Суббота
    +27°
    +32°
    Практически безоблачно
    ВремяПогодаТемператураВлажностьДавлениеВетер, м/сВероятность осадков
    00:00Облачно с прояснениями+28°C84 %758 мм0.9 м/с1 %
    03:00Облачно с прояснениями+28°C89 %757 мм2.2 м/с17 %
    06:00Ясно и безоблачно+28°C89 %758 мм1.7 м/с40 %
    09:00Практически безоблачно+30°C77 %759 мм1.3 м/с31 %
    12:00Небольшая облачность+32°C71 %758 мм4.6 м/с19 %
    15:00Практически безоблачно+31°C71 %756 мм4.9 м/с6 %
    18:00Ясно и безоблачно+30°C80 %756 мм4.5 м/с1 %
    21:00Ясно и безоблачно+29°C82 %758 мм2.7 м/с1 %
Мы используем cookies
Соглашаюсь